Time;durP1;ratioP1;P1;durP2;ratioP2;P2;SDS_P1;SDS_P2;PMS_P1;PMS_P2;Temp;Humidity;BMP_temperature;BMP_pressure;BME280_temperature;BME280_humidity;BME280_pressure;Samples;Min_cycle;Max_cycle;Signal;HPM_P1;HPM_P2
2023/09/30 00:01:26;;;;;;;38.83;19.95;;;20.80;96.50;;;;;;5053676;28;20040;-66
2023/09/30 00:04:30;;;;;;;26.25;19.15;;;20.70;95.80;;;;;;5053813;28;20048;-66
2023/09/30 00:07:34;;;;;;;33.40;19.52;;;20.70;96.00;;;;;;5053807;28;20044;-66
2023/09/30 00:10:38;;;;;;;30.02;18.05;;;20.70;96.10;;;;;;5053908;28;20381;-66
2023/09/30 00:13:42;;;;;;;29.33;18.73;;;20.60;96.00;;;;;;5053584;28;20052;-66
2023/09/30 00:16:46;;;;;;;31.08;19.05;;;20.60;95.60;;;;;;5053366;28;20044;-66
2023/09/30 00:19:50;;;;;;;28.05;16.95;;;20.50;95.60;;;;;;5053296;28;20056;-65
2023/09/30 00:22:54;;;;;;;23.92;17.27;;;20.50;95.40;;;;;;5053560;28;20040;-65
2023/09/30 00:25:59;;;;;;;25.52;17.65;;;20.60;95.30;;;;;;5053453;28;20043;-66
2023/09/30 00:29:04;;;;;;;27.45;18.20;;;20.60;95.10;;;;;;5053313;28;20059;-65
2023/09/30 00:32:09;;;;;;;24.92;17.88;;;20.60;95.30;;;;;;5053028;28;20044;-65
2023/09/30 00:35:16;;;;;;;23.80;18.13;;;20.40;95.30;;;;;;5052159;28;20060;-66
2023/09/30 00:38:19;;;;;;;30.23;18.40;;;20.30;95.60;;;;;;5052821;28;20115;-66
2023/09/30 00:41:24;;;;;;;27.25;18.23;;;20.30;95.70;;;;;;5052275;28;20040;-66
2023/09/30 00:44:28;;;;;;;31.58;18.30;;;20.30;95.80;;;;;;5052318;28;20392;-66
2023/09/30 00:47:33;;;;;;;26.55;18.90;;;20.40;95.20;;;;;;5052260;28;20060;-67
2023/09/30 00:50:37;;;;;;;32.78;18.75;;;20.40;95.30;;;;;;5053116;28;20052;-66
2023/09/30 00:53:42;;;;;;;28.35;18.08;;;20.30;94.90;;;;;;5052229;28;20227;-66
2023/09/30 00:56:47;;;;;;;25.58;17.38;;;20.30;95.10;;;;;;5052910;28;20396;-66
2023/09/30 00:59:52;;;;;;;27.77;18.83;;;20.20;95.30;;;;;;5052583;28;20072;-67
2023/09/30 01:02:56;;;;;;;25.20;18.25;;;20.20;95.60;;;;;;5051629;28;20503;-66
2023/09/30 01:06:01;;;;;;;30.95;18.73;;;20.10;95.70;;;;;;5051609;28;20102;-66
2023/09/30 01:09:05;;;;;;;26.92;16.55;;;20.00;95.70;;;;;;5052376;28;20048;-66
2023/09/30 01:12:09;;;;;;;25.85;16.73;;;20.00;95.70;;;;;;5051760;28;20060;-66
2023/09/30 01:15:33;;;;;;;30.15;16.52;;;20.00;95.50;;;;;;5052278;28;20056;-66
2023/09/30 01:18:39;;;;;;;30.00;16.73;;;20.10;95.40;;;;;;5051413;28;20044;-67
2023/09/30 01:21:45;;;;;;;23.95;16.58;;;20.10;95.10;;;;;;5051364;28;20056;-65
2023/09/30 01:24:49;;;;;;;37.08;17.65;;;20.20;95.30;;;;;;5052318;28;20483;-66
2023/09/30 01:27:52;;;;;;;29.63;19.23;;;20.00;95.20;;;;;;5052171;28;20060;-66
2023/09/30 01:30:57;;;;;;;36.20;18.75;;;20.10;95.50;;;;;;5051907;28;20043;-67
2023/09/30 01:34:00;;;;;;;27.70;19.23;;;20.10;95.40;;;;;;5051516;28;20056;-65
2023/09/30 01:37:04;;;;;;;35.28;19.23;;;19.90;95.40;;;;;;5051712;28;20044;-66
2023/09/30 01:40:11;;;;;;;30.98;19.05;;;19.90;95.70;;;;;;5051650;28;20068;-67
2023/09/30 01:43:15;;;;;;;26.88;19.23;;;19.90;95.90;;;;;;5051757;28;20636;-65
2023/09/30 01:46:19;;;;;;;27.58;18.65;;;19.60;95.70;;;;;;5050817;28;20151;-65
2023/09/30 01:49:25;;;;;;;27.75;18.63;;;20.00;96.00;;;;;;5051729;28;20112;-66
2023/09/30 01:52:30;;;;;;;39.20;20.45;;;19.70;96.10;;;;;;5051978;28;20044;-67
2023/09/30 01:55:35;;;;;;;34.95;19.90;;;19.40;96.00;;;;;;5050720;28;20044;-66
2023/09/30 01:58:39;;;;;;;27.35;20.10;;;19.70;96.20;;;;;;5050973;28;20052;-65
2023/09/30 02:01:45;;;;;;;31.15;19.27;;;19.70;96.50;;;;;;5050575;28;20039;-66
2023/09/30 02:04:49;;;;;;;31.20;18.67;;;19.70;95.90;;;;;;5050594;28;20048;-66
2023/09/30 02:07:54;;;;;;;32.50;20.10;;;19.60;95.80;;;;;;5051297;28;20044;-66
2023/09/30 02:10:59;;;;;;;31.90;19.15;;;19.60;95.90;;;;;;5050590;28;20063;-65
2023/09/30 02:14:05;;;;;;;33.47;20.00;;;18.40;95.80;;;;;;5051511;28;20036;-65
2023/09/30 02:17:09;;;;;;;33.65;20.00;;;20.20;96.30;;;;;;5050546;28;20515;-65
2023/09/30 02:20:15;;;;;;;29.45;20.20;;;17.90;95.60;;;;;;5050309;28;20048;-65
2023/09/30 02:23:21;;;;;;;29.50;19.38;;;19.30;95.70;;;;;;5051154;28;20036;-66
2023/09/30 02:26:27;;;;;;;31.38;19.65;;;18.70;95.80;;;;;;5050999;28;20220;-67
2023/09/30 02:29:33;;;;;;;26.58;19.42;;;19.30;96.00;;;;;;5050543;28;20213;-67
2023/09/30 02:32:39;;;;;;;25.77;19.25;;;19.10;96.10;;;;;;5051085;28;20043;-67
2023/09/30 02:35:46;;;;;;;27.92;18.77;;;19.00;96.00;;;;;;5011758;28;20429;-67
2023/09/30 02:38:50;;;;;;;29.92;18.83;;;19.10;96.40;;;;;;5011652;28;20048;-65
2023/09/30 02:41:55;;;;;;;27.17;18.13;;;18.90;95.90;;;;;;5012065;28;20517;-65
2023/09/30 02:45:02;;;;;;;32.13;19.15;;;20.90;96.40;;;;;;5011565;28;20041;-66
2023/09/30 02:48:09;;;;;;;29.75;18.15;;;;;;;;;;5010829;28;20049;-66
2023/09/30 02:51:13;;;;;;;24.55;17.63;;;;;;;;;;5011345;28;20552;-67
2023/09/30 02:54:17;;;;;;;26.20;18.90;;;18.80;96.30;;;;;;5010860;28;20047;-66
2023/09/30 02:57:21;;;;;;;28.17;17.17;;;18.90;96.20;;;;;;5011465;28;20514;-66
2023/09/30 03:00:32;;;;;;;21.08;16.60;;;;;;;;;;5010502;28;20053;-66
2023/09/30 03:03:36;;;;;;;24.48;17.08;;;;;;;;;;5011306;28;20041;-67
2023/09/30 03:06:44;;;;;;;22.88;17.75;;;;;;;;;;5010533;28;20045;-67
2023/09/30 03:09:48;;;;;;;27.30;17.65;;;;;;;;;;5011157;28;20667;-67
2023/09/30 03:13:01;;;;;;;25.92;16.67;;;20.50;96.10;;;;;;5011439;28;20196;-67
2023/09/30 03:16:05;;;;;;;27.98;16.77;;;;;;;;;;5010873;28;20045;-67
2023/09/30 03:19:11;;;;;;;26.50;16.45;;;;;;;;;;5010807;28;20417;-67
2023/09/30 03:22:15;;;;;;;26.63;16.90;;;;;;;;;;5011276;28;20041;-66
2023/09/30 03:25:20;;;;;;;28.25;15.68;;;18.90;95.50;;;;;;5010902;28;20049;-67
2023/09/30 03:28:25;;;;;;;25.88;15.82;;;18.80;95.30;;;;;;5010992;28;20500;-66
2023/09/30 03:31:29;;;;;;;23.33;14.95;;;;;;;;;;5011204;28;20053;-66
2023/09/30 03:34:36;;;;;;;26.20;15.80;;;17.60;95.10;;;;;;5035862;28;20052;-66
2023/09/30 03:37:41;;;;;;;22.85;15.20;;;;;;;;;;5050327;28;20044;-66
2023/09/30 03:40:47;;;;;;;23.92;14.82;;;20.60;96.00;;;;;;5050343;28;20072;-66
2023/09/30 03:43:52;;;;;;;25.65;15.00;;;;;;;;;;5050532;28;20063;-67
2023/09/30 03:46:56;;;;;;;23.17;14.57;;;;;;;;;;5050503;28;20051;-66
2023/09/30 03:50:03;;;;;;;20.30;14.00;;;18.90;95.30;;;;;;5050591;28;20530;-65
2023/09/30 03:53:07;;;;;;;21.85;14.50;;;18.90;95.30;;;;;;5050367;28;20064;-65
2023/09/30 03:56:12;;;;;;;22.00;14.57;;;18.90;95.00;;;;;;5050360;28;20044;-65
2023/09/30 03:59:16;;;;;;;24.58;14.20;;;18.90;95.10;;;;;;5052455;28;20531;-65
2023/09/30 04:02:20;;;;;;;24.70;15.30;;;18.80;95.10;;;;;;5053701;28;20047;-65
2023/09/30 04:05:36;;;;;;;22.73;14.82;;;17.80;94.90;;;;;;5053716;28;20052;-65
2023/09/30 04:08:41;;;;;;;23.98;14.10;;;;;;;;;;5053602;28;20040;-65
2023/09/30 04:11:46;;;;;;;26.77;14.77;;;;;;;;;;5053851;28;20056;-65
2023/09/30 04:14:51;;;;;;;26.63;14.82;;;18.60;95.30;;;;;;5053802;28;20048;-65
2023/09/30 04:17:55;;;;;;;21.95;14.68;;;;;;;;;;5053585;28;20048;-65
2023/09/30 04:20:59;;;;;;;23.00;14.05;;;;;;;;;;5053335;28;20512;-65
2023/09/30 04:24:06;;;;;;;22.27;14.57;;;19.30;95.30;;;;;;5053457;28;20491;-65
2023/09/30 04:27:10;;;;;;;22.65;15.05;;;;;;;;;;5053162;28;20044;-65
2023/09/30 04:30:15;;;;;;;28.33;16.92;;;;;;;;;;5053267;28;20036;-65
2023/09/30 04:33:20;;;;;;;31.83;19.23;;;;;;;;;;5053004;28;20036;-66
2023/09/30 04:36:24;;;;;;;32.78;17.95;;;;;;;;;;5053035;28;20048;-64
2023/09/30 04:39:28;;;;;;;30.08;19.65;;;;;;;;;;5052983;28;20068;-65
2023/09/30 04:42:32;;;;;;;28.88;19.00;;;17.50;95.50;;;;;;5053162;28;20044;-67
2023/09/30 04:45:36;;;;;;;33.28;19.17;;;;;;;;;;5053234;28;20044;-66
2023/09/30 04:48:40;;;;;;;29.65;18.25;;;18.80;95.90;;;;;;5053220;28;20388;-66
2023/09/30 04:51:44;;;;;;;27.30;16.73;;;;;;;;;;5052928;28;20039;-66
2023/09/30 04:54:49;;;;;;;27.17;16.42;;;18.50;95.00;;;;;;5052959;28;20052;-67
2023/09/30 04:57:53;;;;;;;32.90;17.25;;;;;;;;;;5052145;28;20044;-66
2023/09/30 05:00:58;;;;;;;24.90;16.83;;;18.70;95.10;;;;;;5052553;28;20060;-66
2023/09/30 05:04:02;;;;;;;47.42;32.10;;;;;;;;;;5052560;28;20040;-67
2023/09/30 05:07:06;;;;;;;64.95;42.85;;;;;;;;;;5052387;28;20044;-67
2023/09/30 05:10:13;;;;;;;192.75;132.25;;;18.50;95.50;;;;;;5052618;28;20523;-67
2023/09/30 05:13:18;;;;;;;291.27;181.02;;;;;;;;;;5052859;28;20199;-66
2023/09/30 05:16:22;;;;;;;313.23;195.00;;;;;;;;;;5052439;28;20619;-66
2023/09/30 05:19:26;;;;;;;109.55;57.15;;;;;;;;;;5051704;28;20047;-67
2023/09/30 05:22:31;;;;;;;45.30;27.98;;;;;;;;;;5052632;28;20036;-67
2023/09/30 05:25:36;;;;;;;41.47;25.98;;;;;;;;;;5052098;28;20048;-65
2023/09/30 05:28:40;;;;;;;38.55;20.35;;;;;;;;;;5052375;28;20040;-65
2023/09/30 05:31:44;;;;;;;35.05;17.73;;;;;;;;;;5050935;28;20052;-65
2023/09/30 05:34:48;;;;;;;32.08;15.80;;;;;;;;;;5051445;28;20412;-66
2023/09/30 05:37:53;;;;;;;38.42;16.35;;;;;;;;;;5051912;28;20056;-67
2023/09/30 05:40:58;;;;;;;22.77;14.90;;;;;;;;;;5051004;28;20060;-66
2023/09/30 05:44:03;;;;;;;27.95;15.07;;;22.80;88.50;;;;;;5051873;28;20043;-65
2023/09/30 05:47:08;;;;;;;28.25;15.20;;;22.50;88.80;;;;;;5051916;28;20044;-66
2023/09/30 05:50:16;;;;;;;25.30;14.43;;;23.00;87.00;;;;;;5051701;28;20048;-67
2023/09/30 05:53:20;;;;;;;28.63;13.85;;;23.10;86.50;;;;;;5051092;28;20052;-67
2023/09/30 05:56:24;;;;;;;26.23;14.63;;;23.70;85.20;;;;;;5050566;28;20036;-66
2023/09/30 05:59:29;;;;;;;29.30;14.20;;;24.30;82.90;;;;;;5051170;28;20052;-67
2023/09/30 06:02:34;;;;;;;28.10;14.23;;;24.30;82.30;;;;;;5051228;28;20044;-66
2023/09/30 06:05:42;;;;;;;27.63;14.25;;;24.30;83.10;;;;;;5051481;28;20059;-66
2023/09/30 06:08:46;;;;;;;31.77;14.05;;;24.70;82.50;;;;;;5051271;28;20044;-66
2023/09/30 06:11:50;;;;;;;27.83;13.95;;;25.10;81.60;;;;;;5051324;28;20040;-66
2023/09/30 06:14:58;;;;;;;36.03;15.93;;;25.40;80.70;;;;;;5050720;28;20040;-66
2023/09/30 06:18:04;;;;;;;31.92;16.58;;;25.60;80.10;;;;;;5051154;28;20040;-66
2023/09/30 06:21:09;;;;;;;28.15;16.67;;;25.70;79.40;;;;;;5049595;28;20055;-67
2023/09/30 06:24:13;;;;;;;30.77;16.48;;;25.60;78.70;;;;;;5051550;28;20056;-67
2023/09/30 06:27:18;;;;;;;32.42;16.67;;;25.20;80.30;;;;;;5051052;28;20044;-63
2023/09/30 06:30:29;;;;;;;28.67;16.38;;;25.10;80.90;;;;;;5051160;28;20060;-65
2023/09/30 06:33:33;;;;;;;35.75;17.40;;;24.80;81.40;;;;;;5050829;28;20056;-64
2023/09/30 06:36:37;;;;;;;34.50;17.45;;;24.40;82.60;;;;;;5051061;28;20063;-65
2023/09/30 06:39:42;;;;;;;32.13;19.60;;;24.60;82.40;;;;;;5049919;28;20507;-65
2023/09/30 06:42:45;;;;;;;34.33;20.08;;;24.30;82.80;;;;;;5051172;28;20060;-65
2023/09/30 06:45:49;;;;;;;35.20;18.63;;;24.30;83.30;;;;;;5051142;28;20048;-66
2023/09/30 06:48:53;;;;;;;36.30;19.50;;;24.30;82.60;;;;;;5050995;28;20048;-66
2023/09/30 06:51:57;;;;;;;28.13;18.20;;;24.30;83.40;;;;;;5050896;28;20052;-66
2023/09/30 06:55:04;;;;;;;30.77;16.95;;;24.30;83.80;;;;;;5051273;28;20075;-66
2023/09/30 06:58:10;;;;;;;27.15;15.88;;;24.50;83.80;;;;;;5050065;28;20048;-64
2023/09/30 07:01:17;;;;;;;29.33;13.68;;;24.70;81.90;;;;;;5050801;28;20052;-64
2023/09/30 07:04:21;;;;;;;30.75;14.73;;;24.80;81.40;;;;;;5050671;28;20513;-63
2023/09/30 07:07:25;;;;;;;30.00;15.50;;;25.00;81.40;;;;;;5050969;28;20044;-66
2023/09/30 07:10:29;;;;;;;24.27;14.25;;;25.10;79.70;;;;;;5050223;28;20108;-65
2023/09/30 07:13:33;;;;;;;29.50;13.75;;;25.10;80.30;;;;;;5050694;28;20044;-64
2023/09/30 07:16:37;;;;;;;26.63;14.07;;;26.50;80.60;;;;;;5049980;28;20044;-66
2023/09/30 07:19:41;;;;;;;30.80;13.65;;;25.60;79.30;;;;;;5049182;28;20045;-64
2023/09/30 07:22:46;;;;;;;25.85;14.50;;;25.80;79.00;;;;;;5049984;28;20048;-65
2023/09/30 07:25:52;;;;;;;24.17;13.23;;;25.70;79.40;;;;;;5049852;28;20040;-65
2023/09/30 07:28:58;;;;;;;26.30;12.70;;;26.10;79.00;;;;;;5050839;28;20036;-65
2023/09/30 07:32:02;;;;;;;20.63;12.00;;;26.10;78.10;;;;;;5050599;28;20060;-65
2023/09/30 07:35:07;;;;;;;17.27;11.55;;;26.20;78.20;;;;;;5054043;28;20060;-63
2023/09/30 07:38:11;;;;;;;21.75;12.77;;;26.20;77.60;;;;;;5054462;28;20051;-64
2023/09/30 07:41:17;;;;;;;27.73;12.55;;;26.40;77.50;;;;;;5042079;28;20056;-65
2023/09/30 07:44:21;;;;;;;26.25;15.88;;;26.60;76.90;;;;;;5054183;28;20044;-63
2023/09/30 07:47:26;;;;;;;29.42;13.50;;;26.60;76.80;;;;;;5053970;28;20052;-64
2023/09/30 07:50:30;;;;;;;22.25;13.07;;;26.90;75.90;;;;;;5054284;28;20471;-64
2023/09/30 07:53:34;;;;;;;22.50;12.55;;;26.90;76.40;;;;;;5053925;28;20052;-65
2023/09/30 07:56:38;;;;;;;34.88;14.15;;;27.10;76.30;;;;;;5054141;28;20044;-65
2023/09/30 07:59:42;;;;;;;18.77;11.85;;;27.20;75.40;;;;;;5053850;28;20416;-64
2023/09/30 08:02:47;;;;;;;20.20;12.68;;;27.10;74.60;;;;;;5054097;28;20060;-65
2023/09/30 08:05:52;;;;;;;21.98;13.05;;;26.90;73.60;;;;;;5052191;28;20055;-63
2023/09/30 08:08:56;;;;;;;24.45;13.32;;;27.40;74.60;;;;;;5052767;28;20040;-65
2023/09/30 08:12:00;;;;;;;30.23;14.18;;;27.70;74.60;;;;;;5051560;28;20044;-64
2023/09/30 08:15:05;;;;;;;30.52;15.73;;;27.70;75.10;;;;;;5052735;28;20142;-66
2023/09/30 08:18:09;;;;;;;22.40;14.98;;;27.90;74.80;;;;;;5053092;28;20072;-64
2023/09/30 08:21:13;;;;;;;21.90;11.93;;;27.90;75.40;;;;;;5053123;28;20075;-64
2023/09/30 08:24:17;;;;;;;33.78;12.15;;;28.00;75.90;;;;;;5053010;28;20048;-65
2023/09/30 08:27:23;;;;;;;28.70;11.15;;;28.00;74.40;;;;;;5053156;28;20052;-65
2023/09/30 08:30:27;;;;;;;18.27;10.45;;;28.00;73.70;;;;;;5052498;28;20040;-66
2023/09/30 08:33:31;;;;;;;22.80;10.63;;;27.60;73.90;;;;;;5053041;28;20068;-65
2023/09/30 08:36:35;;;;;;;16.25;8.32;;;27.60;74.30;;;;;;5053107;28;20048;-65
2023/09/30 08:39:42;;;;;;;20.10;9.60;;;27.70;74.20;;;;;;5052335;28;20510;-65
2023/09/30 08:42:52;;;;;;;14.40;8.48;;;27.60;74.60;;;;;;5053913;28;20052;-66
2023/09/30 08:46:00;;;;;;;15.50;8.32;;;27.70;74.20;;;;;;5052989;28;20052;-64
2023/09/30 08:49:05;;;;;;;18.17;9.32;;;27.80;74.00;;;;;;5053028;28;20044;-65
2023/09/30 08:52:13;;;;;;;20.98;8.32;;;27.90;73.70;;;;;;5052923;28;20049;-66
2023/09/30 08:55:16;;;;;;;21.73;9.35;;;27.70;72.30;;;;;;5053267;28;20048;-66
2023/09/30 08:58:32;;;;;;;19.95;10.70;;;27.70;72.90;;;;;;5053160;28;20064;-65
2023/09/30 09:01:37;;;;;;;17.38;9.82;;;27.70;72.30;;;;;;5052692;28;20056;-65
2023/09/30 09:04:42;;;;;;;18.30;9.13;;;27.80;72.50;;;;;;5051448;28;20052;-66
2023/09/30 09:07:47;;;;;;;22.10;10.38;;;27.90;72.60;;;;;;5049986;28;20071;-65
2023/09/30 09:10:59;;;;;;;15.90;9.10;;;28.10;70.80;;;;;;5050468;28;20656;-67
2023/09/30 09:14:04;;;;;;;15.00;9.10;;;28.10;71.40;;;;;;5051768;28;20511;-66
2023/09/30 09:17:10;;;;;;;16.05;8.32;;;28.30;71.90;;;;;;5049288;28;20040;-65
2023/09/30 09:20:23;;;;;;;18.48;7.80;;;28.40;70.20;;;;;;5051449;28;20653;-66
2023/09/30 09:23:27;;;;;;;16.30;7.38;;;28.50;70.90;;;;;;5051142;28;20052;-66
2023/09/30 09:26:34;;;;;;;14.52;6.75;;;28.60;70.40;;;;;;5051568;28;20056;-66
2023/09/30 09:29:40;;;;;;;12.80;7.57;;;28.70;70.10;;;;;;5050797;28;20040;-65
2023/09/30 09:33:01;;;;;;;12.88;6.22;;;28.70;69.00;;;;;;5052022;28;20048;-64
2023/09/30 09:36:05;;;;;;;8.32;5.47;;;28.80;68.70;;;;;;5051739;28;20072;-66
2023/09/30 09:39:13;;;;;;;12.70;6.18;;;28.90;68.70;;;;;;5051828;28;20044;-66
2023/09/30 09:42:28;;;;;;;15.30;6.03;;;29.00;68.40;;;;;;5051340;28;20047;-66
2023/09/30 09:45:37;;;;;;;12.35;5.63;;;29.20;68.30;;;;;;5051931;28;20048;-66
2023/09/30 09:48:42;;;;;;;16.17;7.00;;;29.20;67.40;;;;;;5051742;28;20052;-67
2023/09/30 09:51:48;;;;;;;11.68;6.55;;;29.30;68.00;;;;;;5051572;28;20389;-66
2023/09/30 09:54:52;;;;;;;11.98;6.50;;;29.30;66.20;;;;;;5051726;28;20044;-66
2023/09/30 09:57:57;;;;;;;18.50;7.75;;;29.30;66.10;;;;;;5051394;28;20044;-66
2023/09/30 10:01:02;;;;;;;15.02;6.30;;;29.40;65.80;;;;;;5051314;28;20420;-65
2023/09/30 10:04:06;;;;;;;12.05;6.18;;;29.40;65.30;;;;;;5051239;28;20067;-68
2023/09/30 10:07:56;;;;;;;12.35;6.13;;;29.50;65.50;;;;;;5051494;28;20051;-65
2023/09/30 10:11:01;;;;;;;13.97;6.73;;;29.70;65.30;;;;;;5039400;28;20392;-66
2023/09/30 10:14:11;;;;;;;16.73;6.53;;;29.80;64.90;;;;;;5051344;28;20052;-65
2023/09/30 10:17:15;;;;;;;9.75;4.70;;;29.80;64.70;;;;;;5051046;28;20036;-66
2023/09/30 10:20:31;;;;;;;14.48;5.78;;;29.90;65.50;;;;;;5050513;28;20052;-66
2023/09/30 10:23:35;;;;;;;11.57;5.93;;;29.90;64.40;;;;;;5051130;28;20044;-68
2023/09/30 10:26:39;;;;;;;10.88;5.55;;;30.00;64.20;;;;;;5050721;28;20044;-65
2023/09/30 10:29:43;;;;;;;11.88;6.25;;;30.10;63.60;;;;;;5050659;28;20099;-66
2023/09/30 10:32:50;;;;;;;10.23;5.10;;;30.10;64.20;;;;;;5051100;28;20040;-65
2023/09/30 10:35:54;;;;;;;11.77;4.90;;;30.10;63.50;;;;;;5050548;28;20065;-66
2023/09/30 10:38:59;;;;;;;8.43;4.57;;;30.20;63.20;;;;;;5051415;28;20036;-66
2023/09/30 10:42:04;;;;;;;14.43;5.70;;;30.00;60.10;;;;;;5051164;28;20526;-66
2023/09/30 10:45:28;;;;;;;6.70;4.30;;;30.00;60.70;;;;;;5051035;28;20068;-65
2023/09/30 10:48:37;;;;;;;6.75;4.68;;;29.90;61.40;;;;;;5049893;28;20043;-65
2023/09/30 10:51:41;;;;;;;11.63;4.50;;;29.80;62.10;;;;;;5050876;28;20503;-66
2023/09/30 10:54:46;;;;;;;9.15;4.20;;;29.80;61.10;;;;;;5050760;28;20048;-66
2023/09/30 10:57:52;;;;;;;8.07;4.53;;;29.80;61.60;;;;;;5050655;28;20048;-65
2023/09/30 11:00:56;;;;;;;7.68;4.45;;;29.80;62.00;;;;;;5050552;28;20428;-66
2023/09/30 11:04:04;;;;;;;9.88;4.90;;;29.80;61.20;;;;;;5050852;28;20040;-67
2023/09/30 11:07:08;;;;;;;10.57;4.30;;;29.70;61.00;;;;;;5051254;28;20499;-66
2023/09/30 11:10:16;;;;;;;15.18;4.15;;;29.60;59.40;;;;;;5054750;28;20048;-66
2023/09/30 11:13:20;;;;;;;11.07;4.97;;;29.30;59.20;;;;;;5054859;28;20508;-65
2023/09/30 11:16:24;;;;;;;6.90;4.40;;;29.30;60.50;;;;;;5054499;28;20056;-68
2023/09/30 11:19:47;;;;;;;12.93;4.30;;;29.30;61.40;;;;;;5054851;28;20044;-66
2023/09/30 11:22:51;;;;;;;8.80;4.20;;;29.30;61.30;;;;;;5054506;28;20055;-67
2023/09/30 11:25:56;;;;;;;11.73;5.22;;;29.30;60.80;;;;;;5054665;28;20058;-68
2023/09/30 11:29:11;;;;;;;11.00;4.47;;;29.30;61.70;;;;;;5054354;28;20052;-66
2023/09/30 11:32:26;;;;;;;9.18;4.20;;;29.30;60.30;;;;;;5054761;28;20388;-66
2023/09/30 11:35:30;;;;;;;10.57;4.57;;;29.30;60.80;;;;;;5054302;28;20533;-65
2023/09/30 11:38:35;;;;;;;5.80;4.50;;;29.30;61.50;;;;;;5054395;28;20503;-66
2023/09/30 11:41:41;;;;;;;13.75;4.47;;;29.30;61.60;;;;;;5054055;28;20072;-66
2023/09/30 11:44:49;;;;;;;6.00;3.90;;;29.30;61.70;;;;;;5054441;28;20060;-66
2023/09/30 11:47:53;;;;;;;6.80;4.40;;;29.30;61.40;;;;;;5054341;28;20052;-66
2023/09/30 11:51:03;;;;;;;7.88;5.00;;;29.30;60.50;;;;;;5054019;28;20040;-65
2023/09/30 11:54:10;;;;;;;9.63;5.00;;;29.30;60.80;;;;;;5054210;28;20048;-66
2023/09/30 11:57:16;;;;;;;10.85;5.03;;;29.30;60.30;;;;;;5054347;28;20046;-65
2023/09/30 12:00:20;;;;;;;5.22;3.97;;;29.30;60.40;;;;;;5053940;28;20060;-66
2023/09/30 12:03:27;;;;;;;11.50;5.50;;;29.20;59.80;;;;;;5054146;28;20044;-66
2023/09/30 12:06:31;;;;;;;8.95;4.50;;;29.20;59.80;;;;;;5053632;28;20385;-66
2023/09/30 12:09:37;;;;;;;8.77;4.80;;;29.20;60.40;;;;;;5052182;28;20036;-66
2023/09/30 12:12:41;;;;;;;5.38;4.13;;;29.20;60.20;;;;;;5053095;28;20044;-65
2023/09/30 12:15:45;;;;;;;6.32;3.83;;;29.20;61.40;;;;;;5052519;28;20044;-64
2023/09/30 12:18:50;;;;;;;6.20;4.10;;;29.20;61.20;;;;;;5052322;28;20499;-66
2023/09/30 12:21:54;;;;;;;5.78;3.88;;;29.10;60.90;;;;;;5052035;28;20068;-63
2023/09/30 12:24:59;;;;;;;7.53;3.95;;;29.10;60.40;;;;;;5052556;28;20044;-65
2023/09/30 12:28:03;;;;;;;6.13;4.50;;;29.10;61.00;;;;;;5053488;28;20052;-65
2023/09/30 12:31:07;;;;;;;7.47;3.92;;;29.10;60.90;;;;;;5052667;28;20048;-66
2023/09/30 12:34:13;;;;;;;7.30;3.78;;;29.10;60.10;;;;;;5053084;28;20056;-65
2023/09/30 12:37:17;;;;;;;4.63;3.55;;;29.10;60.10;;;;;;5041167;28;20066;-66
2023/09/30 12:40:23;;;;;;;5.70;3.60;;;29.00;60.40;;;;;;5053045;28;20052;-66
2023/09/30 12:43:28;;;;;;;6.18;3.70;;;29.00;59.00;;;;;;5053270;28;20044;-67
2023/09/30 12:46:34;;;;;;;5.75;3.40;;;29.00;59.30;;;;;;5052245;28;20311;-67
2023/09/30 12:49:39;;;;;;;6.07;3.53;;;28.90;59.80;;;;;;5053107;28;20056;-66
2023/09/30 12:52:44;;;;;;;6.10;3.40;;;28.90;59.90;;;;;;5053331;28;20536;-67
2023/09/30 12:55:48;;;;;;;7.00;3.38;;;28.90;59.90;;;;;;5052726;28;20519;-66
2023/09/30 12:58:53;;;;;;;7.13;3.40;;;28.90;59.90;;;;;;5052146;28;20043;-67
2023/09/30 13:01:57;;;;;;;7.82;3.60;;;28.80;59.70;;;;;;5052793;28;20047;-67
2023/09/30 13:05:02;;;;;;;12.23;4.93;;;28.80;60.00;;;;;;5051571;28;20044;-68
2023/09/30 13:08:06;;;;;;;12.98;4.90;;;28.90;61.20;;;;;;5051484;28;20047;-68
2023/09/30 13:11:13;;;;;;;9.38;4.50;;;28.80;63.60;;;;;;5051968;28;20036;-67
2023/09/30 13:14:19;;;;;;;11.68;4.88;;;28.80;64.20;;;;;;5052978;28;20491;-67
2023/09/30 13:17:24;;;;;;;8.95;4.35;;;28.80;64.00;;;;;;5052691;28;20032;-66
2023/09/30 13:20:29;;;;;;;9.02;4.45;;;28.70;64.50;;;;;;5050306;28;20048;-68
2023/09/30 13:23:33;;;;;;;8.07;4.63;;;28.70;64.20;;;;;;5051998;28;20055;-66
2023/09/30 13:26:38;;;;;;;7.97;4.20;;;28.70;64.20;;;;;;5051987;28;20052;-68
2023/09/30 13:29:42;;;;;;;9.82;4.97;;;28.60;63.90;;;;;;5052419;28;20527;-67
2023/09/30 13:32:46;;;;;;;12.35;4.63;;;28.60;64.00;;;;;;5052207;28;20348;-67
2023/09/30 13:35:51;;;;;;;7.15;4.18;;;28.60;64.80;;;;;;5052101;28;20055;-67
2023/09/30 13:38:57;;;;;;;8.43;5.20;;;28.50;64.70;;;;;;5051967;28;20397;-67
2023/09/30 13:42:02;;;;;;;8.43;4.28;;;28.50;64.90;;;;;;5052071;28;20064;-69
2023/09/30 13:45:06;;;;;;;13.10;4.82;;;28.40;64.50;;;;;;5051141;28;20051;-66
2023/09/30 13:48:11;;;;;;;14.32;4.55;;;28.40;65.10;;;;;;5051957;28;20523;-68
2023/09/30 13:51:15;;;;;;;6.55;3.90;;;28.40;65.40;;;;;;5052420;28;20384;-66
2023/09/30 13:54:19;;;;;;;10.45;4.90;;;28.40;64.80;;;;;;5052421;28;20067;-69
2023/09/30 13:57:23;;;;;;;10.23;4.75;;;28.30;65.10;;;;;;5052088;28;20048;-67
2023/09/30 14:00:27;;;;;;;8.32;5.15;;;28.30;65.20;;;;;;5051681;28;20047;-67
2023/09/30 14:03:31;;;;;;;11.52;4.72;;;28.30;64.90;;;;;;5039845;28;20048;-68
2023/09/30 14:06:35;;;;;;;15.57;4.78;;;28.20;65.40;;;;;;5051662;28;20044;-68
2023/09/30 14:09:39;;;;;;;15.45;4.88;;;28.20;66.10;;;;;;5051904;28;20523;-69
2023/09/30 14:12:45;;;;;;;8.57;5.15;;;28.10;66.40;;;;;;5051821;28;20047;-70
2023/09/30 14:15:49;;;;;;;10.82;5.10;;;27.80;66.30;;;;;;5051148;28;20048;-67
2023/09/30 14:18:53;;;;;;;13.55;5.15;;;28.00;67.00;;;;;;5051766;28;20120;-68
2023/09/30 14:21:57;;;;;;;6.90;4.88;;;28.00;66.60;;;;;;5050629;28;20060;-67
2023/09/30 14:25:02;;;;;;;13.70;5.63;;;27.90;67.70;;;;;;5050520;28;20044;-66
2023/09/30 14:28:07;;;;;;;9.55;5.38;;;28.00;68.40;;;;;;5051491;28;20044;-66
2023/09/30 14:31:11;;;;;;;11.82;5.20;;;28.00;69.50;;;;;;5051062;28;20507;-66
2023/09/30 14:34:15;;;;;;;9.38;5.57;;;28.00;70.00;;;;;;5051100;28;20056;-66
2023/09/30 14:37:19;;;;;;;11.75;5.70;;;27.90;69.80;;;;;;5051473;28;20056;-66
2023/09/30 14:40:25;;;;;;;14.43;5.80;;;27.60;68.80;;;;;;5050538;28;20044;-67
2023/09/30 14:43:30;;;;;;;14.50;5.63;;;27.80;69.10;;;;;;5049423;28;20048;-68
2023/09/30 14:46:35;;;;;;;7.82;4.75;;;27.80;69.60;;;;;;5050931;28;20499;-66
2023/09/30 14:49:38;;;;;;;12.68;4.90;;;27.80;69.50;;;;;;5050844;28;20048;-66
2023/09/30 14:52:42;;;;;;;8.82;5.47;;;27.70;69.20;;;;;;5051717;28;20175;-66
2023/09/30 14:55:47;;;;;;;9.15;4.65;;;27.70;68.90;;;;;;5050953;28;20044;-65
2023/09/30 14:58:51;;;;;;;9.43;4.68;;;27.70;68.20;;;;;;5049815;28;20503;-66
2023/09/30 15:01:55;;;;;;;10.52;4.68;;;27.70;68.70;;;;;;5049544;28;20059;-66
2023/09/30 15:04:59;;;;;;;8.48;5.22;;;27.60;68.50;;;;;;5050187;28;20036;-66
2023/09/30 15:08:03;;;;;;;12.15;5.82;;;27.60;68.50;;;;;;5050963;28;20056;-66
2023/09/30 15:11:14;;;;;;;13.07;5.38;;;27.60;69.80;;;;;;5050159;28;20040;-65
2023/09/30 15:14:19;;;;;;;9.65;5.35;;;27.50;70.40;;;;;;5051122;28;20051;-65
2023/09/30 15:17:24;;;;;;;10.43;5.00;;;27.50;71.60;;;;;;5050815;28;20052;-66
2023/09/30 15:20:28;;;;;;;12.38;6.30;;;27.50;72.00;;;;;;5050807;28;20604;-65
2023/09/30 15:23:32;;;;;;;10.65;6.10;;;27.50;72.90;;;;;;5049622;28;20048;-65
2023/09/30 15:26:36;;;;;;;10.35;5.60;;;27.50;73.30;;;;;;5050762;28;20040;-64
2023/09/30 15:29:40;;;;;;;14.70;6.75;;;27.40;73.80;;;;;;5050832;28;20044;-66
2023/09/30 15:32:44;;;;;;;12.57;6.25;;;27.40;74.60;;;;;;5050808;28;20495;-65
2023/09/30 15:35:48;;;;;;;10.90;6.20;;;27.40;75.20;;;;;;5011249;28;20061;-65
2023/09/30 15:38:52;;;;;;;10.65;6.53;;;27.40;75.60;;;;;;5010872;28;20041;-66
2023/09/30 15:41:56;;;;;;;10.25;6.20;;;27.30;75.80;;;;;;5010733;28;20409;-65
2023/09/30 15:45:00;;;;;;;8.68;6.07;;;27.30;76.90;;;;;;5010823;28;20045;-66
2023/09/30 15:48:04;;;;;;;15.40;7.03;;;27.20;76.80;;;;;;5010804;28;20073;-66
2023/09/30 15:51:08;;;;;;;11.15;6.47;;;27.20;77.40;;;;;;5010385;28;20049;-65
2023/09/30 15:54:12;;;;;;;18.90;6.65;;;27.20;77.60;;;;;;5011548;28;20045;-64
2023/09/30 15:57:16;;;;;;;11.93;6.78;;;27.20;77.90;;;;;;5014809;28;20501;-64
2023/09/30 16:00:20;;;;;;;12.25;6.25;;;27.20;78.10;;;;;;5013560;28;20412;-65
2023/09/30 16:03:25;;;;;;;9.70;5.70;;;27.10;77.00;;;;;;5014077;28;20061;-66